Time;durP1;ratioP1;P1;durP2;ratioP2;P2;SDS_P1;SDS_P2;PMS_P1;PMS_P2;Temp;Humidity;BMP_temperature;BMP_pressure;BME280_temperature;BME280_humidity;BME280_pressure;Samples;Min_cycle;Max_cycle;Signal;HPM_P1;HPM_P2
2022/08/02 00:00:40;;;;;;;1.90;1.80;;;26.80;48.30;;;;;;5014484;28;21018;-65
2022/08/02 00:03:09;;;;;;;1.97;1.87;;;26.80;48.30;;;;;;5020921;28;20479;-66
2022/08/02 00:05:37;;;;;;;2.23;1.80;;;26.80;48.30;;;;;;5033615;28;21020;-66
2022/08/02 00:08:07;;;;;;;1.80;1.70;;;26.80;48.30;;;;;;5025816;28;20424;-66
2022/08/02 00:10:35;;;;;;;2.60;2.40;;;26.80;48.30;;;;;;5024190;28;20464;-66
2022/08/02 00:13:04;;;;;;;2.10;1.90;;;26.80;48.30;;;;;;5019045;28;20437;-66
2022/08/02 00:15:33;;;;;;;2.27;2.07;;;26.80;48.20;;;;;;5013162;28;20460;-66
2022/08/02 00:18:01;;;;;;;2.17;1.93;;;26.80;48.30;;;;;;5022765;28;20503;-67
2022/08/02 00:20:29;;;;;;;2.00;1.90;;;26.80;48.30;;;;;;5012149;28;20480;-65
2022/08/02 00:22:57;;;;;;;2.17;2.07;;;26.80;49.60;;;;;;5019264;28;20431;-66
2022/08/02 00:25:25;;;;;;;2.40;2.20;;;26.80;48.30;;;;;;5014893;28;20448;-66
2022/08/02 00:27:53;;;;;;;1.90;1.80;;;26.80;48.30;;;;;;5023728;28;21009;-65
2022/08/02 00:30:23;;;;;;;2.17;2.07;;;26.80;48.30;;;;;;5016248;28;20596;-65
2022/08/02 00:32:51;;;;;;;1.87;1.77;;;26.80;48.30;;;;;;5009289;28;20434;-66
2022/08/02 00:35:19;;;;;;;1.90;1.80;;;26.80;48.30;;;;;;5016814;28;20465;-66
2022/08/02 00:37:47;;;;;;;2.00;1.80;;;26.80;48.30;;;;;;5029423;28;20798;-66
2022/08/02 00:40:15;;;;;;;1.90;1.80;;;26.70;48.30;;;;;;5026435;28;20460;-66
2022/08/02 00:42:43;;;;;;;2.03;1.93;;;26.70;48.30;;;;;;5005900;28;20425;-66
2022/08/02 00:45:12;;;;;;;2.23;2.13;;;26.70;48.30;;;;;;5028895;28;20509;-66
2022/08/02 00:47:41;;;;;;;1.93;1.83;;;26.70;48.30;;;;;;5016858;28;20686;-66
2022/08/02 00:50:10;;;;;;;2.17;2.07;;;26.70;48.40;;;;;;5008684;28;20545;-66
2022/08/02 00:52:38;;;;;;;2.10;1.90;;;26.70;48.30;;;;;;4996429;28;20811;-66
2022/08/02 00:55:06;;;;;;;1.73;1.63;;;26.70;48.30;;;;;;5011976;28;20507;-66
2022/08/02 00:57:35;;;;;;;2.47;2.27;;;26.70;48.30;;;;;;5029804;28;20498;-66
2022/08/02 01:00:05;;;;;;;2.07;1.93;;;26.70;48.40;;;;;;5013259;28;20472;-67
2022/08/02 01:02:33;;;;;;;2.30;2.20;;;26.70;48.30;;;;;;5013055;28;20922;-66
2022/08/02 01:05:03;;;;;;;2.23;2.07;;;26.70;48.30;;;;;;5022783;28;20505;-66
2022/08/02 01:07:31;;;;;;;1.97;1.87;;;26.70;48.40;;;;;;5014867;28;20421;-66
2022/08/02 01:10:00;;;;;;;2.33;2.17;;;26.70;48.30;;;;;;5011844;28;20551;-66
2022/08/02 01:12:28;;;;;;;1.63;1.53;;;26.70;48.40;;;;;;5029616;28;20971;-65
2022/08/02 01:14:59;;;;;;;2.00;1.90;;;26.70;48.40;;;;;;5013184;28;20552;-66
2022/08/02 01:17:43;;;;;;;1.90;1.80;;;26.70;48.40;;;;;;5020344;28;20430;-66
2022/08/02 01:20:24;;;;;;;2.00;1.90;;;26.70;48.30;;;;;;5012549;28;20491;-66
2022/08/02 01:23:09;;;;;;;1.90;1.80;;;26.70;48.40;;;;;;5010853;28;20874;-66
2022/08/02 01:25:53;;;;;;;2.47;2.27;;;26.70;48.30;;;;;;5018610;28;20465;-65
2022/08/02 01:28:33;;;;;;;1.97;1.87;;;26.70;48.30;;;;;;5012279;28;20452;-66
2022/08/02 01:31:07;;;;;;;1.90;1.80;;;26.70;48.40;;;;;;5012552;28;20515;-67
2022/08/02 01:33:41;;;;;;;2.10;1.90;;;26.70;48.40;;;;;;5024655;28;20471;-66
2022/08/02 01:36:13;;;;;;;1.70;1.60;;;26.60;48.30;;;;;;5009627;28;20460;-66
2022/08/02 01:38:46;;;;;;;1.60;1.47;;;26.70;48.40;;;;;;5023364;28;20478;-65
2022/08/02 01:41:18;;;;;;;1.80;1.67;;;26.70;48.40;;;;;;5020620;28;20871;-66
2022/08/02 01:43:51;;;;;;;2.30;2.20;;;26.70;48.40;;;;;;5005130;28;20426;-66
2022/08/02 01:46:21;;;;;;;2.33;2.13;;;26.60;48.30;;;;;;5024377;28;20465;-66
2022/08/02 01:48:50;;;;;;;1.87;1.77;;;26.60;48.30;;;;;;5023499;28;20440;-66
2022/08/02 01:52:20;;;;;;;2.50;2.30;;;26.60;48.30;;;;;;5023606;28;20464;-66
2022/08/02 01:54:14;;;;;;;2.00;1.90;;;26.60;48.30;;;;;;5011785;28;20441;-65
2022/08/02 01:56:44;;;;;;;2.07;1.97;;;26.60;48.30;;;;;;5023025;28;20539;-66
2022/08/02 01:59:18;;;;;;;1.80;1.70;;;26.60;48.30;;;;;;5023709;28;20510;-65
2022/08/02 02:01:48;;;;;;;2.67;2.47;;;26.60;48.30;;;;;;5004106;28;20499;-66
2022/08/02 02:04:17;;;;;;;2.33;2.13;;;26.60;48.20;;;;;;5019375;28;20934;-66
2022/08/02 02:06:47;;;;;;;1.93;1.83;;;26.60;48.30;;;;;;5015592;28;20471;-66
2022/08/02 02:09:17;;;;;;;2.00;1.87;;;26.60;48.30;;;;;;5022686;28;20425;-67
2022/08/02 02:11:47;;;;;;;1.73;1.63;;;26.60;48.30;;;;;;5013480;28;20456;-67
2022/08/02 02:14:37;;;;;;;2.00;1.90;;;26.50;48.30;;;;;;5023637;28;20432;-66
2022/08/02 02:17:06;;;;;;;2.10;2.00;;;26.50;48.20;;;;;;5024938;28;20457;-66
2022/08/02 02:19:36;;;;;;;1.87;1.77;;;26.60;48.20;;;;;;5012870;28;20970;-66
2022/08/02 02:22:04;;;;;;;1.83;1.73;;;26.50;48.20;;;;;;5017076;28;20468;-64
2022/08/02 02:24:34;;;;;;;2.10;1.90;;;26.50;48.30;;;;;;5013359;28;20529;-66
2022/08/02 02:27:06;;;;;;;2.40;2.00;;;26.50;48.40;;;;;;5017151;28;20874;-65
2022/08/02 02:29:36;;;;;;;1.97;1.87;;;26.50;48.30;;;;;;5019678;28;20461;-66
2022/08/02 02:32:06;;;;;;;2.70;2.40;;;26.50;48.30;;;;;;5016421;28;20530;-66
2022/08/02 02:34:39;;;;;;;2.10;2.00;;;26.50;48.30;;;;;;5010598;28;20479;-66
2022/08/02 02:37:14;;;;;;;1.90;1.60;;;26.50;48.30;;;;;;5017325;28;20460;-66
2022/08/02 02:39:44;;;;;;;1.70;1.60;;;26.50;48.30;;;;;;5010605;28;20898;-66
2022/08/02 02:42:15;;;;;;;2.03;1.90;;;26.50;48.50;;;;;;5020599;28;20467;-65
2022/08/02 02:44:46;;;;;;;2.00;1.90;;;26.50;48.30;;;;;;5023117;28;20424;-66
2022/08/02 02:47:16;;;;;;;2.00;1.90;;;26.50;48.40;;;;;;5015209;28;21018;-66
2022/08/02 02:49:47;;;;;;;1.70;1.60;;;26.50;48.30;;;;;;5005497;28;20523;-67
2022/08/02 02:52:17;;;;;;;1.87;1.77;;;26.50;48.30;;;;;;5019111;28;20466;-66
2022/08/02 02:54:48;;;;;;;1.93;1.83;;;26.50;48.30;;;;;;5003092;28;20448;-66
2022/08/02 02:57:16;;;;;;;2.00;1.90;;;26.50;48.40;;;;;;5011096;28;20464;-66
2022/08/02 02:59:46;;;;;;;1.90;1.80;;;26.50;48.40;;;;;;5007001;28;20460;-66
2022/08/02 03:02:17;;;;;;;2.27;2.07;;;26.40;49.50;;;;;;5021858;28;20981;-65
2022/08/02 03:04:46;;;;;;;1.90;1.80;;;26.40;49.50;;;;;;5005949;28;20436;-66
2022/08/02 03:07:25;;;;;;;2.00;1.90;;;26.40;48.30;;;;;;5019516;28;20452;-66
2022/08/02 03:09:54;;;;;;;1.53;1.43;;;26.40;48.20;;;;;;5018329;28;20538;-66
2022/08/02 03:12:24;;;;;;;2.17;2.07;;;26.40;48.30;;;;;;5020539;28;20535;-66
2022/08/02 03:15:02;;;;;;;2.10;2.00;;;26.40;48.30;;;;;;5025704;28;20933;-64
2022/08/02 03:17:44;;;;;;;1.80;1.70;;;26.40;48.30;;;;;;5033314;28;20918;-66
2022/08/02 03:20:13;;;;;;;1.80;1.70;;;26.40;48.30;;;;;;5016613;28;20498;-66
2022/08/02 03:22:42;;;;;;;2.00;1.90;;;26.40;48.20;;;;;;5024834;28;20431;-66
2022/08/02 03:25:12;;;;;;;1.70;1.60;;;26.40;48.30;;;;;;5030877;28;20440;-65
2022/08/02 03:27:41;;;;;;;2.17;2.07;;;26.40;48.30;;;;;;5017871;28;20437;-65
2022/08/02 03:30:12;;;;;;;1.93;1.83;;;26.40;48.30;;;;;;5031618;28;20518;-64
2022/08/02 03:32:42;;;;;;;1.70;1.60;;;26.40;48.20;;;;;;5017101;28;20799;-65
2022/08/02 03:35:12;;;;;;;1.83;1.73;;;26.30;48.10;;;;;;5026632;28;20828;-66
2022/08/02 03:37:41;;;;;;;2.00;1.90;;;26.30;48.20;;;;;;5014203;28;20456;-66
2022/08/02 03:40:11;;;;;;;2.10;2.00;;;26.30;48.20;;;;;;5014129;28;20527;-66
2022/08/02 03:42:40;;;;;;;2.17;2.07;;;26.30;48.30;;;;;;5017472;28;20444;-64
2022/08/02 03:45:12;;;;;;;1.80;1.70;;;26.30;48.30;;;;;;5021743;28;20441;-66
2022/08/02 03:47:41;;;;;;;1.60;1.50;;;26.30;48.10;;;;;;5022796;28;20441;-66
2022/08/02 03:50:12;;;;;;;2.03;1.93;;;26.30;48.10;;;;;;5011706;28;20467;-66
2022/08/02 03:52:42;;;;;;;1.70;1.60;;;26.30;48.10;;;;;;5023064;28;20838;-65
2022/08/02 03:55:12;;;;;;;1.53;1.43;;;26.30;48.10;;;;;;5019076;28;20448;-66
2022/08/02 03:57:41;;;;;;;1.70;1.60;;;26.30;48.30;;;;;;5022680;28;20440;-66
2022/08/02 04:00:13;;;;;;;1.90;1.80;;;26.30;48.10;;;;;;5020775;28;20460;-66
2022/08/02 04:02:41;;;;;;;1.93;1.83;;;26.30;48.10;;;;;;5013955;28;20881;-66
2022/08/02 04:05:09;;;;;;;2.00;1.90;;;26.30;48.10;;;;;;5013799;28;20792;-65
2022/08/02 04:07:37;;;;;;;1.60;1.50;;;26.30;48.10;;;;;;5013801;28;20437;-66
2022/08/02 04:10:26;;;;;;;1.67;1.57;;;26.30;48.10;;;;;;5012148;28;20685;-64
2022/08/02 04:12:55;;;;;;;1.77;1.67;;;26.30;48.10;;;;;;5013797;28;20503;-65
2022/08/02 04:15:24;;;;;;;2.00;1.70;;;26.20;48.10;;;;;;5022046;28;20861;-66
2022/08/02 04:17:56;;;;;;;2.00;1.90;;;26.20;49.40;;;;;;5015022;28;20824;-65
2022/08/02 04:20:29;;;;;;;1.77;1.67;;;26.20;48.10;;;;;;5021879;28;20475;-66
2022/08/02 04:23:01;;;;;;;1.87;1.77;;;26.20;48.20;;;;;;5014915;28;20500;-66
2022/08/02 04:25:31;;;;;;;2.10;2.00;;;26.20;48.10;;;;;;5021254;28;20971;-66
2022/08/02 04:28:08;;;;;;;1.70;1.60;;;26.20;48.20;;;;;;5018909;28;20436;-65
2022/08/02 04:30:48;;;;;;;1.73;1.63;;;26.20;48.10;;;;;;5017425;28;20870;-65
2022/08/02 04:33:16;;;;;;;2.20;2.00;;;26.20;48.10;;;;;;5024940;28;20495;-66
2022/08/02 04:35:45;;;;;;;1.40;1.30;;;26.20;48.10;;;;;;5009257;28;20601;-65
2022/08/02 04:38:14;;;;;;;1.80;1.70;;;26.20;48.10;;;;;;5025330;28;20428;-65
2022/08/02 04:40:51;;;;;;;1.67;1.57;;;26.20;48.10;;;;;;5015591;28;20495;-65
2022/08/02 04:43:19;;;;;;;1.60;1.50;;;26.20;48.20;;;;;;5017252;28;20421;-66
2022/08/02 04:45:52;;;;;;;1.70;1.60;;;26.10;48.10;;;;;;5013845;28;20507;-66
2022/08/02 04:48:20;;;;;;;1.87;1.77;;;26.20;48.20;;;;;;5013532;28;20429;-65
2022/08/02 04:50:49;;;;;;;1.77;1.67;;;26.10;48.20;;;;;;5016844;28;20468;-66
2022/08/02 04:53:17;;;;;;;1.40;1.30;;;26.20;48.20;;;;;;5013658;28;20487;-65
2022/08/02 04:55:46;;;;;;;1.40;1.30;;;26.20;48.10;;;;;;5019975;28;20543;-65
2022/08/02 04:58:14;;;;;;;1.80;1.70;;;26.10;48.20;;;;;;5028737;28;20444;-65
2022/08/02 05:01:05;;;;;;;1.90;1.80;;;26.10;48.20;;;;;;5021341;28;20507;-65
2022/08/02 05:03:34;;;;;;;1.47;1.37;;;26.10;48.20;;;;;;5021942;28;20454;-66
2022/08/02 05:06:02;;;;;;;1.80;1.70;;;26.10;48.10;;;;;;5020867;28;20515;-65
2022/08/02 05:08:40;;;;;;;1.53;1.40;;;26.10;48.20;;;;;;5021035;28;20437;-65
2022/08/02 05:11:08;;;;;;;1.87;1.77;;;26.10;48.20;;;;;;5011919;28;20476;-65
2022/08/02 05:13:36;;;;;;;2.00;1.90;;;26.10;48.20;;;;;;5013219;28;20483;-64
2022/08/02 05:16:25;;;;;;;1.80;1.70;;;26.10;48.30;;;;;;5014904;28;20906;-64
2022/08/02 05:18:58;;;;;;;2.00;1.73;;;26.10;48.10;;;;;;5020313;28;20448;-66
2022/08/02 05:21:27;;;;;;;1.40;1.30;;;26.10;48.10;;;;;;5013069;28;20492;-66
2022/08/02 05:23:55;;;;;;;1.60;1.50;;;26.10;48.20;;;;;;5019784;28;20445;-65
2022/08/02 05:26:23;;;;;;;2.00;1.90;;;26.10;48.10;;;;;;5018511;28;20472;-67
2022/08/02 05:28:51;;;;;;;2.20;2.00;;;26.10;48.10;;;;;;5019755;28;20473;-66
2022/08/02 05:31:19;;;;;;;1.70;1.60;;;26.00;48.10;;;;;;5013334;28;20535;-65
2022/08/02 05:33:49;;;;;;;2.17;2.07;;;26.00;48.10;;;;;;5014213;28;20914;-66
2022/08/02 05:36:17;;;;;;;1.60;1.50;;;26.00;48.10;;;;;;5019507;28;20521;-64
2022/08/02 05:38:49;;;;;;;1.43;1.33;;;26.00;48.10;;;;;;5020788;28;20906;-63
2022/08/02 05:41:17;;;;;;;1.67;1.50;;;26.00;48.10;;;;;;5010845;28;20477;-65
2022/08/02 05:43:46;;;;;;;2.17;2.07;;;26.00;47.90;;;;;;5012586;28;20445;-65
2022/08/02 05:46:14;;;;;;;2.17;1.60;;;26.00;48.10;;;;;;5020113;28;20472;-65
2022/08/02 05:48:43;;;;;;;2.00;1.80;;;26.00;48.20;;;;;;5010761;28;20439;-64
2022/08/02 05:51:20;;;;;;;2.43;1.93;;;26.00;48.10;;;;;;5019224;28;20468;-65
2022/08/02 05:53:51;;;;;;;2.73;2.40;;;25.90;48.00;;;;;;5016235;28;20431;-66
2022/08/02 05:56:24;;;;;;;2.50;2.03;;;26.00;48.10;;;;;;5019434;28;20470;-66
2022/08/02 05:58:56;;;;;;;2.40;2.03;;;25.90;48.10;;;;;;5012341;28;20915;-65
2022/08/02 06:01:32;;;;;;;1.87;1.73;;;25.90;48.00;;;;;;5020421;28;20464;-65
2022/08/02 06:04:01;;;;;;;2.10;2.00;;;25.90;48.20;;;;;;5022761;28;20447;-64
2022/08/02 06:06:33;;;;;;;2.43;2.10;;;25.90;48.20;;;;;;5012840;28;20524;-65
2022/08/02 06:09:05;;;;;;;2.13;1.93;;;25.90;48.30;;;;;;5010443;28;20429;-65
2022/08/02 06:11:36;;;;;;;2.13;1.97;;;25.90;48.30;;;;;;5028903;28;20461;-65
2022/08/02 06:14:06;;;;;;;2.20;2.10;;;25.90;48.30;;;;;;5031533;28;20436;-65
2022/08/02 06:16:35;;;;;;;2.00;1.90;;;25.90;48.30;;;;;;5022272;28;20500;-66
2022/08/02 06:19:11;;;;;;;1.80;1.70;;;25.90;49.70;;;;;;5012118;28;20938;-66
2022/08/02 06:21:42;;;;;;;2.37;2.27;;;25.90;48.30;;;;;;5021451;28;20472;-66
2022/08/02 06:24:32;;;;;;;2.10;2.00;;;25.90;48.40;;;;;;5017522;28;20535;-65
2022/08/02 06:27:02;;;;;;;3.13;2.60;;;25.90;48.40;;;;;;5019011;28;20809;-65
2022/08/02 06:29:32;;;;;;;2.17;2.00;;;25.90;48.40;;;;;;5028789;28;22779;-65
2022/08/02 06:32:07;;;;;;;1.80;1.70;;;25.90;48.40;;;;;;5022197;28;21223;-65
2022/08/02 06:34:39;;;;;;;2.37;2.27;;;25.90;48.40;;;;;;5013423;28;20448;-66
2022/08/02 06:37:19;;;;;;;1.83;1.73;;;25.80;48.40;;;;;;5015295;28;20476;-65
2022/08/02 06:39:49;;;;;;;2.27;2.10;;;25.80;48.40;;;;;;5010497;28;20473;-65
2022/08/02 06:42:23;;;;;;;1.83;1.73;;;25.90;48.40;;;;;;5015657;28;20522;-65
2022/08/02 06:44:55;;;;;;;2.03;1.83;;;25.90;48.50;;;;;;4990096;28;20492;-64
2022/08/02 06:47:26;;;;;;;2.87;2.17;;;25.90;48.60;;;;;;5008300;28;20469;-67
2022/08/02 06:49:57;;;;;;;2.23;2.03;;;25.90;48.60;;;;;;5016556;28;20936;-65
2022/08/02 06:52:29;;;;;;;3.10;2.20;;;25.90;48.40;;;;;;5018071;28;20957;-65
2022/08/02 06:54:59;;;;;;;2.60;2.40;;;26.00;48.30;;;;;;5012172;28;20479;-66
2022/08/02 06:57:28;;;;;;;3.30;2.77;;;26.00;48.20;;;;;;5019898;28;20477;-66
2022/08/02 06:59:57;;;;;;;3.00;2.50;;;26.10;48.10;;;;;;5013029;28;20461;-66
2022/08/02 07:02:25;;;;;;;3.00;2.70;;;26.10;47.90;;;;;;5007237;28;20484;-66
2022/08/02 07:04:54;;;;;;;3.60;2.30;;;26.10;47.90;;;;;;5007460;28;20432;-67
2022/08/02 07:07:23;;;;;;;5.00;2.40;;;26.20;48.00;;;;;;5013124;28;20565;-65
2022/08/02 07:09:53;;;;;;;2.83;2.63;;;26.20;47.90;;;;;;4982363;28;1075079;-67
2022/08/02 07:12:29;;;;;;;2.77;2.57;;;26.20;47.90;;;;;;5016130;28;20869;-66
2022/08/02 07:14:58;;;;;;;3.33;2.27;;;26.20;47.70;;;;;;5023105;28;20436;-65
2022/08/02 07:17:26;;;;;;;3.10;2.53;;;26.20;47.70;;;;;;5019367;28;20461;-65
2022/08/02 07:19:54;;;;;;;3.40;3.10;;;26.20;47.70;;;;;;5012916;28;20531;-64
2022/08/02 07:22:23;;;;;;;3.13;2.93;;;26.20;47.70;;;;;;5013778;28;20587;-66
2022/08/02 07:24:53;;;;;;;3.03;2.67;;;26.20;47.60;;;;;;5014506;28;20524;-64
2022/08/02 07:27:21;;;;;;;4.33;2.30;;;26.30;47.60;;;;;;5014720;28;20513;-66
2022/08/02 07:29:50;;;;;;;3.30;2.80;;;26.20;47.30;;;;;;5017418;28;20522;-66
2022/08/02 07:32:20;;;;;;;2.27;2.10;;;26.30;47.50;;;;;;5026284;28;20456;-67
2022/08/02 07:34:49;;;;;;;2.40;2.20;;;26.30;47.50;;;;;;5010807;28;20499;-66
2022/08/02 07:37:21;;;;;;;3.10;2.50;;;26.20;47.40;;;;;;5013897;28;20476;-65
2022/08/02 07:40:12;;;;;;;2.50;2.27;;;26.20;47.20;;;;;;5016077;28;20563;-65
2022/08/02 07:42:47;;;;;;;3.17;2.97;;;26.20;47.30;;;;;;5015354;28;20468;-66
2022/08/02 07:45:15;;;;;;;3.13;2.83;;;26.20;47.20;;;;;;5014925;28;20436;-66
2022/08/02 07:47:45;;;;;;;3.33;2.70;;;26.20;47.20;;;;;;5029554;28;20444;-64
2022/08/02 07:50:14;;;;;;;2.63;2.47;;;26.20;47.20;;;;;;5026422;28;20460;-66
2022/08/02 07:52:43;;;;;;;3.10;2.90;;;26.20;47.20;;;;;;5025927;28;20486;-66
2022/08/02 07:55:14;;;;;;;2.20;2.10;;;26.20;47.10;;;;;;5021323;28;20436;-67
2022/08/02 07:57:44;;;;;;;3.57;3.27;;;26.20;47.20;;;;;;5033049;28;20459;-67
2022/08/02 08:00:16;;;;;;;3.00;2.70;;;26.20;47.20;;;;;;5013320;28;20915;-66
2022/08/02 08:02:44;;;;;;;2.93;2.73;;;26.30;47.20;;;;;;5021949;28;20464;-66
2022/08/02 08:05:13;;;;;;;2.80;2.60;;;26.20;47.20;;;;;;5028524;28;20443;-67
2022/08/02 08:07:41;;;;;;;2.47;2.00;;;26.30;47.20;;;;;;5021181;28;20466;-67
2022/08/02 08:10:10;;;;;;;2.90;2.70;;;26.30;47.20;;;;;;5023300;28;20541;-65
2022/08/02 08:12:39;;;;;;;2.47;2.30;;;26.20;47.10;;;;;;5028440;28;20970;-65
2022/08/02 08:15:08;;;;;;;3.47;3.17;;;26.20;47.20;;;;;;5022866;28;20436;-65
2022/08/02 08:17:37;;;;;;;3.13;2.93;;;26.10;47.40;;;;;;5026993;28;20449;-63
2022/08/02 08:20:06;;;;;;;2.90;2.70;;;26.10;47.50;;;;;;5019123;28;20519;-63
2022/08/02 08:22:34;;;;;;;2.80;2.60;;;26.00;47.70;;;;;;5022231;28;20448;-65
2022/08/02 08:25:02;;;;;;;2.77;2.53;;;26.00;47.70;;;;;;5012298;28;20457;-65
2022/08/02 08:27:31;;;;;;;2.90;2.70;;;26.00;47.90;;;;;;5031983;28;20451;-65
2022/08/02 08:30:00;;;;;;;3.13;2.90;;;26.00;47.90;;;;;;5025587;28;20478;-65
2022/08/02 08:32:28;;;;;;;2.73;2.53;;;25.90;47.80;;;;;;5031206;28;20522;-65
2022/08/02 08:34:57;;;;;;;2.90;2.70;;;25.90;47.80;;;;;;5020436;28;20444;-66
2022/08/02 08:37:25;;;;;;;2.70;2.50;;;25.90;47.80;;;;;;5032618;28;20452;-65
2022/08/02 08:39:54;;;;;;;2.57;2.37;;;25.90;48.00;;;;;;5023569;28;20973;-65
2022/08/02 08:42:26;;;;;;;2.40;2.20;;;25.90;48.00;;;;;;5030388;28;20955;-64
2022/08/02 08:44:55;;;;;;;2.83;2.57;;;25.90;47.90;;;;;;5026682;28;20468;-65
2022/08/02 08:47:28;;;;;;;2.40;2.30;;;25.90;48.00;;;;;;5018003;28;20504;-65
2022/08/02 08:50:02;;;;;;;2.50;2.30;;;25.90;48.00;;;;;;5032933;28;20443;-66
2022/08/02 08:52:36;;;;;;;3.23;2.80;;;25.90;47.90;;;;;;5024586;28;20441;-64
2022/08/02 08:55:07;;;;;;;2.80;2.60;;;25.90;48.10;;;;;;5023151;28;20486;-65
2022/08/02 08:57:37;;;;;;;2.80;2.60;;;25.90;48.00;;;;;;5026578;28;20444;-64
2022/08/02 09:00:06;;;;;;;2.47;2.27;;;25.80;48.00;;;;;;5026129;28;20465;-64
2022/08/02 09:02:37;;;;;;;2.40;2.17;;;25.90;48.00;;;;;;5013124;28;20978;-65
2022/08/02 09:05:07;;;;;;;2.37;2.23;;;25.90;47.90;;;;;;5027289;28;20898;-65
2022/08/02 09:07:35;;;;;;;2.57;2.37;;;25.90;47.90;;;;;;5030233;28;20934;-64
2022/08/02 09:10:33;;;;;;;2.60;2.40;;;25.80;47.90;;;;;;5028903;28;20502;-65
2022/08/02 09:13:16;;;;;;;2.53;2.30;;;25.80;48.10;;;;;;5027262;28;20433;-65
2022/08/02 09:16:05;;;;;;;2.63;2.50;;;25.80;48.00;;;;;;5021512;28;20514;-64
2022/08/02 09:18:43;;;;;;;2.60;2.40;;;25.80;48.00;;;;;;5016334;28;20440;-64
2022/08/02 09:21:14;;;;;;;2.73;2.53;;;25.80;48.00;;;;;;5024219;28;20525;-65
2022/08/02 09:23:44;;;;;;;5.37;2.57;;;25.80;47.90;;;;;;5029787;28;20509;-65
2022/08/02 09:26:14;;;;;;;2.40;2.30;;;25.80;47.90;;;;;;5021093;28;20519;-64
2022/08/02 09:28:45;;;;;;;1.87;1.73;;;25.80;48.00;;;;;;5029724;28;20451;-65
2022/08/02 09:31:14;;;;;;;2.70;2.50;;;25.80;48.00;;;;;;5016847;28;20983;-65
2022/08/02 09:33:50;;;;;;;2.03;1.93;;;25.80;48.00;;;;;;5007980;28;20437;-64
2022/08/02 09:36:18;;;;;;;2.30;2.20;;;25.80;48.00;;;;;;5015818;28;20522;-64
2022/08/02 09:38:54;;;;;;;2.73;2.40;;;25.80;48.10;;;;;;5014628;28;20424;-64
2022/08/02 09:41:23;;;;;;;2.30;2.17;;;25.80;48.00;;;;;;5021349;28;20467;-64
2022/08/02 09:43:52;;;;;;;2.40;2.20;;;25.80;49.30;;;;;;5032381;28;20961;-64
2022/08/02 09:46:37;;;;;;;2.60;2.40;;;25.80;48.10;;;;;;5031127;28;20495;-64
2022/08/02 09:49:09;;;;;;;2.07;1.97;;;25.80;48.10;;;;;;5026479;28;20946;-64
2022/08/02 09:51:48;;;;;;;2.37;2.17;;;25.70;48.10;;;;;;5027788;28;20464;-65
2022/08/02 09:54:18;;;;;;;2.30;2.10;;;25.80;48.10;;;;;;5019662;28;20544;-64
2022/08/02 09:56:48;;;;;;;3.00;2.80;;;25.70;48.00;;;;;;5016075;28;20883;-64
2022/08/02 09:59:17;;;;;;;2.40;2.30;;;25.70;48.10;;;;;;5026259;28;20443;-64
2022/08/02 10:01:48;;;;;;;2.43;2.23;;;25.80;48.10;;;;;;5017946;28;20460;-64
2022/08/02 10:04:31;;;;;;;2.50;2.30;;;25.70;48.10;;;;;;5014154;28;20457;-65
2022/08/02 10:07:20;;;;;;;2.80;2.60;;;25.80;48.10;;;;;;5027358;28;20848;-65
2022/08/02 10:09:50;;;;;;;3.03;2.13;;;25.80;48.20;;;;;;5010561;28;20476;-65
2022/08/02 10:12:21;;;;;;;2.03;1.93;;;25.70;48.20;;;;;;5013756;28;20472;-64
2022/08/02 10:14:50;;;;;;;2.73;2.53;;;25.80;48.30;;;;;;5012347;28;20425;-65
2022/08/02 10:17:19;;;;;;;2.10;2.00;;;25.80;48.10;;;;;;5019356;28;20473;-63
2022/08/02 10:19:48;;;;;;;2.37;2.17;;;25.70;48.20;;;;;;5015657;28;20555;-65
2022/08/02 10:22:31;;;;;;;1.90;1.80;;;25.70;48.20;;;;;;5017529;28;20493;-64
2022/08/02 10:25:02;;;;;;;2.60;2.40;;;25.80;48.10;;;;;;5016633;28;20907;-65
2022/08/02 10:27:32;;;;;;;2.70;2.50;;;25.80;48.20;;;;;;5026176;28;20487;-65
2022/08/02 10:30:21;;;;;;;1.90;1.80;;;25.80;48.20;;;;;;5019712;28;20551;-66
2022/08/02 10:32:52;;;;;;;1.97;1.77;;;25.70;48.10;;;;;;5015162;28;20953;-66
2022/08/02 10:35:24;;;;;;;2.17;2.07;;;25.70;48.10;;;;;;5018346;28;20941;-64
2022/08/02 10:37:57;;;;;;;2.30;2.10;;;25.80;48.20;;;;;;5031430;28;20417;-65
2022/08/02 10:40:26;;;;;;;2.43;2.23;;;25.70;48.10;;;;;;5018909;28;20488;-65
2022/08/02 10:42:58;;;;;;;2.13;2.03;;;25.80;48.10;;;;;;5018334;28;21145;-65
2022/08/02 10:45:28;;;;;;;2.47;2.27;;;25.80;48.10;;;;;;5019573;28;20874;-65
2022/08/02 10:47:58;;;;;;;2.17;1.97;;;25.80;48.10;;;;;;5018046;28;20439;-65
2022/08/02 10:51:02;;;;;;;1.97;1.87;;;25.80;48.30;;;;;;5010489;28;20534;-64
2022/08/02 10:53:31;;;;;;;2.90;2.10;;;25.80;48.10;;;;;;4949215;29;20884;-65
2022/08/02 10:56:01;;;;;;;2.60;2.40;;;25.70;48.00;;;;;;5001868;28;20483;-63
2022/08/02 10:58:31;;;;;;;2.10;1.97;;;25.80;48.20;;;;;;5014884;28;20431;-65
2022/08/02 11:01:04;;;;;;;1.97;1.77;;;25.70;48.10;;;;;;5026136;28;20977;-64
2022/08/02 11:03:40;;;;;;;2.50;2.30;;;25.80;48.20;;;;;;5016782;28;20421;-64
2022/08/02 11:06:12;;;;;;;2.20;2.00;;;25.80;48.20;;;;;;5017797;28;20463;-64
2022/08/02 11:09:27;;;;;;;1.90;1.80;;;25.80;48.10;;;;;;5012227;28;20460;-64
2022/08/02 11:12:03;;;;;;;2.37;2.20;;;25.80;48.20;;;;;;5006664;28;20492;-65
2022/08/02 11:14:32;;;;;;;1.80;1.70;;;25.80;48.10;;;;;;5017856;28;20544;-65
2022/08/02 11:17:12;;;;;;;2.20;2.10;;;25.80;48.10;;;;;;5012956;28;20485;-65
2022/08/02 11:20:17;;;;;;;3.80;2.10;;;25.80;48.10;;;;;;5011554;28;20449;-65
2022/08/02 11:22:48;;;;;;;1.97;1.87;;;25.70;48.10;;;;;;4991013;28;20859;-64
2022/08/02 11:25:35;;;;;;;2.13;2.03;;;25.80;49.30;;;;;;5012494;28;21005;-64
2022/08/02 11:28:25;;;;;;;2.20;2.00;;;25.80;47.90;;;;;;5009145;28;20475;-63
2022/08/02 11:30:57;;;;;;;2.80;2.60;;;25.80;47.90;;;;;;5010547;28;20468;-65
2022/08/02 11:33:31;;;;;;;1.80;1.70;;;25.80;47.80;;;;;;5011161;28;20547;-66
2022/08/02 11:36:02;;;;;;;1.80;1.70;;;25.80;48.00;;;;;;5020080;28;20468;-65
2022/08/02 11:38:32;;;;;;;2.03;1.83;;;25.80;48.00;;;;;;5014763;28;20448;-65
2022/08/02 11:41:02;;;;;;;2.00;1.90;;;25.80;48.10;;;;;;5024102;28;21060;-65
2022/08/02 11:43:37;;;;;;;1.77;1.60;;;25.80;48.10;;;;;;5016757;28;20424;-65
2022/08/02 11:46:12;;;;;;;2.17;2.07;;;25.80;48.10;;;;;;5014622;28;21779;-64
2022/08/02 11:48:41;;;;;;;2.00;1.90;;;25.80;48.10;;;;;;5020979;28;20451;-65
2022/08/02 11:51:13;;;;;;;2.20;2.10;;;25.80;48.10;;;;;;5021891;28;20466;-66
2022/08/02 11:53:44;;;;;;;2.43;2.23;;;25.80;48.10;;;;;;5020889;28;20709;-65
2022/08/02 11:56:14;;;;;;;1.90;1.80;;;25.80;48.10;;;;;;5020235;28;20547;-65
2022/08/02 11:59:04;;;;;;;2.00;1.80;;;25.80;48.10;;;;;;5018905;28;20538;-65
2022/08/02 12:01:33;;;;;;;2.53;1.70;;;25.80;48.10;;;;;;5017517;28;20487;-63
2022/08/02 12:04:17;;;;;;;1.97;1.87;;;25.80;48.10;;;;;;5021085;28;20448;-65
2022/08/02 12:06:53;;;;;;;1.90;1.80;;;25.90;48.30;;;;;;5022342;28;20464;-70
2022/08/02 12:09:26;;;;;;;2.17;2.07;;;25.90;48.10;;;;;;5026513;28;20433;-70
2022/08/02 12:11:55;;;;;;;1.90;1.73;;;25.80;47.90;;;;;;5027041;28;20840;-70
2022/08/02 12:14:24;;;;;;;2.00;1.90;;;25.90;48.00;;;;;;5032993;28;20870;-71
2022/08/02 12:19:41;;;;;;;1.80;1.70;;;25.90;48.00;;;;;;5016160;28;20999;-64
2022/08/02 12:22:16;;;;;;;2.33;2.20;;;25.90;47.90;;;;;;5019756;28;20472;-65
2022/08/02 12:24:47;;;;;;;1.97;1.87;;;25.90;48.00;;;;;;5019112;28;20444;-66
2022/08/02 12:27:30;;;;;;;2.00;1.87;;;25.90;47.90;;;;;;5029495;28;20529;-65
2022/08/02 12:30:00;;;;;;;1.50;1.40;;;25.90;48.00;;;;;;5023717;28;20460;-65
2022/08/02 12:32:29;;;;;;;2.00;1.90;;;25.90;48.00;;;;;;5011534;28;20853;-65
2022/08/02 12:35:06;;;;;;;1.93;1.83;;;25.90;47.90;;;;;;5014450;28;20441;-65
2022/08/02 12:37:35;;;;;;;1.60;1.50;;;25.90;48.00;;;;;;5023329;28;20456;-63
2022/08/02 12:40:22;;;;;;;2.10;2.00;;;25.90;48.10;;;;;;5021838;28;20974;-65
2022/08/02 12:42:55;;;;;;;1.80;1.70;;;25.90;48.00;;;;;;5021289;28;20915;-65
2022/08/02 12:45:24;;;;;;;1.80;1.70;;;25.90;48.10;;;;;;5026131;28;20460;-65
2022/08/02 12:47:54;;;;;;;1.87;1.77;;;25.90;48.10;;;;;;5023301;28;21136;-65
2022/08/02 12:50:26;;;;;;;1.70;1.60;;;25.90;48.00;;;;;;5023938;28;20477;-65
2022/08/02 12:53:04;;;;;;;1.90;1.80;;;25.90;48.00;;;;;;5025389;28;20436;-65
2022/08/02 12:55:39;;;;;;;1.97;1.87;;;25.90;48.00;;;;;;5026801;28;20474;-64
2022/08/02 12:58:27;;;;;;;1.47;1.37;;;25.90;48.00;;;;;;5023321;28;20516;-71
2022/08/02 13:00:57;;;;;;;1.97;1.60;;;25.90;48.00;;;;;;5025439;28;20511;-71
2022/08/02 13:03:26;;;;;;;2.37;1.90;;;25.90;47.90;;;;;;5009223;28;20436;-70
2022/08/02 13:06:14;;;;;;;2.17;2.00;;;25.90;48.00;;;;;;5014886;28;20480;-70
2022/08/02 13:09:12;;;;;;;1.90;1.80;;;25.90;48.10;;;;;;5018695;28;20535;-70
2022/08/02 13:11:41;;;;;;;2.00;1.90;;;26.00;48.20;;;;;;5016815;28;21101;-71
2022/08/02 13:14:11;;;;;;;2.00;1.90;;;26.00;48.10;;;;;;5022627;28;20459;-71
2022/08/02 13:16:40;;;;;;;2.13;1.90;;;26.00;48.10;;;;;;5015011;28;20509;-70